OMDBOPLA

Guest
Details From OMDB - Dubai Intl
To OPLA - Allama Iqbal Intl
Flight Number -
Tags Generated
Created
Modified
Stats Distance 1,073 nm / 1,987 km
Max Altitude 0 ft / 0 m
Waypoints 4
Social Downloads 1
Likes 0
Share VATSIM

Download

Looking for another format? Having issues loading an existing format? Contact us
Advertisement - Login to hide

Notes

Generated

Route

OMDB HILAL PATNI OPLA

ID Type Via Altitude Latitude Longitude Leg Dist Tot Dist Heading (true) Name
O OMDB APT - 0 ft / 0 m 25.26213˚ 55.34757˚ - 0 nm - -
HILAL FIX - 0 ft / 0 m 30.25000˚ 69.73333˚ 820 nm 820 nm 65° / 72° -
PATNI FIX - 0 ft / 0 m 31.45000˚ 74.01583˚ 232 nm 1052 nm 71° / 73° -
O OPLA APT - 0 ft / 0 m 31.53392˚ 74.40283˚ 20 nm 1073 nm 76° / 76° -

Altitude Profile

Advertisement - Login to hide

Weather


0- 5 10 15 20 25 30 35+ Temperature / ° C

Clouds and Precipitation
Forecast for 2017-12-13 00:00 UTC. Updated an hour ago

Ground ~20,000 ft ~40,000 ft Winds

OMDB

Details ICAO OMDB (DXB)
Name DUBAI INTL
Region United Arab Emirates
Timezone Asia/Dubai (UTC+4.0)
Stats Elevation 62 ft / 19 m (AMSL)
Location 25.254912° 55.364260°
Runways 2
Magnetic Variation 2.047° E

METAR

OMDB 122200Z 10003KT 080V140 CAVOK 19/13 Q1018 NOSIG

Decode

TAF

TAF OMDB 121701Z 1218/1400 11008KT 9999 SCT040 PROB30 TEMPO 1307/1312 04015G25KT 4000 BLDU

Decode

Departure Runways

ID Width Length Bearing (true) Bearing (mag) Surface Threshold Offset Overrun Length
12L 197 ft / 60 m 13,124 ft / 4,000 m 121.49° 119.44° Asphalt 1,312 ft / 400 m 395 ft / 120 m
12R 151 ft / 46 m 13,139 ft / 4,005 m 121.48° 119.43° Asphalt 394 ft / 120 m 197 ft / 60 m
30L 151 ft / 46 m 13,139 ft / 4,005 m 301.50° 299.45° Asphalt 2,953 ft / 900 m 197 ft / 60 m
30R 197 ft / 60 m 13,124 ft / 4,000 m 301.51° 299.46° Asphalt 0 ft / 0 m 395 ft / 120 m

OPLA

Details ICAO OPLA (LHE)
Name ALLAMA IQBAL INTL
Region Pakistan
Timezone Asia/Karachi (UTC+5.0)
Stats Elevation 712 ft / 217 m (AMSL)
Location 31.521562° 74.403591°
Runways 2
Magnetic Variation 2.011° E

METAR

OPLA 122155Z 24004KT 1000 R36/1400D RMID/1300D R18/1500D BR FEW040 BKN100 10/09 Q1018 A30.06 BECMG 0800 FG

Decode

TAF

Not found

Destination Runways

ID Width Length Bearing (true) Bearing (mag) Surface Threshold Offset Overrun Length
18L 151 ft / 46 m 11,014 ft / 3,357 m 180.88° 178.87° Concrete 0 ft / 0 m 410 ft / 125 m
18R 151 ft / 46 m 9,023 ft / 2,750 m 180.87° 178.86° Asphalt 0 ft / 0 m 915 ft / 279 m
36L 151 ft / 46 m 9,023 ft / 2,750 m 0.87° 358.86° Asphalt 0 ft / 0 m 0 ft / 0 m
36R 151 ft / 46 m 11,014 ft / 3,357 m 0.88° 358.87° Concrete 0 ft / 0 m 420 ft / 128 m

Approach Navaids

Runway Type Ident Frequency Range Bearing (true) Bearing (mag) Slope Elevation
36R Localiser ILA 109.90 MHz 18 nm / 33 km 0.79° 358.78° - 707 ft / 215 m (AMSL)
36R Glidescope ILA 109.90 MHz 10 nm / 19 km 0.88° 358.87° 3.00° 707 ft / 215 m (AMSL)
36R DME ILA 109.90 MHz 18 nm / 33 km - - - 712 ft / 217 m (AMSL)

Popular Alternatives